createdAt,value
2018-08-30T00:00:07.628Z,10.43
2018-08-30T00:00:43.034Z,10.65
2018-08-30T00:01:16.153Z,10.28
2018-08-30T00:01:49.102Z,9.65
2018-08-30T00:02:22.531Z,10.23
2018-08-30T00:02:55.973Z,10.28
2018-08-30T00:03:28.910Z,10.20
2018-08-30T00:04:01.867Z,12.00
2018-08-30T00:04:34.790Z,11.18
2018-08-30T00:05:07.703Z,9.78
2018-08-30T00:05:40.899Z,10.08
2018-08-30T00:06:13.812Z,10.15
2018-08-30T00:06:46.773Z,10.23
2018-08-30T00:07:19.689Z,11.43
2018-08-30T00:07:52.849Z,11.22
2018-08-30T00:08:26.004Z,10.60
2018-08-30T00:08:59.134Z,10.10
2018-08-30T00:09:32.061Z,10.40
2018-08-30T00:10:05.184Z,9.58
2018-08-30T00:10:38.101Z,9.65
2018-08-30T00:11:11.035Z,11.05
2018-08-30T00:11:44.138Z,9.63
2018-08-30T00:12:17.082Z,9.68
2018-08-30T00:12:50.199Z,9.58
2018-08-30T00:13:23.381Z,9.48
2018-08-30T00:13:56.504Z,10.68
2018-08-30T00:14:29.490Z,11.12
2018-08-30T00:15:02.557Z,10.80
2018-08-30T00:15:35.475Z,9.73
2018-08-30T00:16:08.620Z,10.38
2018-08-30T00:16:41.530Z,10.32
2018-08-30T00:17:14.478Z,9.93
2018-08-30T00:17:47.675Z,9.30
2018-08-30T00:18:20.617Z,10.40
2018-08-30T00:18:53.681Z,10.53
2018-08-30T00:19:26.797Z,10.93
2018-08-30T00:19:59.729Z,10.75
2018-08-30T00:20:32.800Z,10.45
2018-08-30T00:21:05.930Z,10.20
2018-08-30T00:21:38.899Z,10.70
2018-08-30T00:22:12.378Z,10.45
2018-08-30T00:22:45.535Z,10.43
2018-08-30T00:23:18.424Z,10.75
2018-08-30T00:23:51.371Z,11.48
2018-08-30T00:24:24.453Z,10.82
2018-08-30T00:24:57.641Z,9.85
2018-08-30T00:25:30.817Z,9.85
2018-08-30T00:26:03.728Z,10.85
2018-08-30T00:26:36.793Z,11.15
2018-08-30T00:27:09.726Z,10.30
2018-08-30T00:27:42.673Z,9.88
2018-08-30T00:28:15.786Z,10.30
2018-08-30T00:28:48.689Z,9.80
2018-08-30T00:29:21.603Z,9.93
2018-08-30T00:29:54.558Z,10.13
2018-08-30T00:30:27.608Z,9.10
2018-08-30T00:31:00.580Z,9.55
2018-08-30T00:31:33.517Z,10.30
2018-08-30T00:32:06.486Z,9.00
2018-08-30T00:32:39.693Z,10.50
2018-08-30T00:33:12.617Z,10.80
2018-08-30T00:33:45.710Z,11.22
2018-08-30T00:34:18.773Z,10.05
2018-08-30T00:34:51.690Z,11.40
2018-08-30T00:35:24.636Z,9.50
2018-08-30T00:35:57.775Z,9.35
2018-08-30T00:36:30.766Z,10.38
2018-08-30T00:37:03.853Z,10.38
2018-08-30T00:37:36.814Z,11.35
2018-08-30T00:38:09.979Z,9.20
2018-08-30T00:38:43.235Z,10.32
2018-08-30T00:39:16.172Z,10.55
2018-08-30T00:39:49.101Z,10.50
2018-08-30T00:40:22.025Z,10.72
2018-08-30T00:40:55.252Z,10.30
2018-08-30T00:41:28.404Z,10.40
2018-08-30T00:42:01.336Z,11.15
2018-08-30T00:42:34.566Z,10.95
2018-08-30T00:43:07.585Z,10.40
2018-08-30T00:43:40.481Z,9.93
2018-08-30T00:44:13.642Z,11.00
2018-08-30T00:44:46.856Z,11.18
2018-08-30T00:45:19.784Z,10.25
2018-08-30T00:45:52.867Z,9.63
2018-08-30T00:46:26.137Z,11.05
2018-08-30T00:46:59.048Z,10.90
2018-08-30T00:47:31.987Z,10.43
2018-08-30T00:48:04.983Z,10.88
2018-08-30T00:48:37.936Z,10.65
2018-08-30T00:49:11.006Z,8.88
2018-08-30T00:49:43.920Z,10.28
2018-08-30T00:50:17.074Z,11.22
2018-08-30T00:50:49.990Z,10.18
2018-08-30T00:51:23.129Z,9.45
2018-08-30T00:51:56.074Z,9.63
2018-08-30T00:52:28.988Z,9.60
2018-08-30T00:53:02.046Z,10.28
2018-08-30T00:53:34.958Z,9.08
2018-08-30T00:54:08.134Z,9.85
2018-08-30T00:54:41.271Z,9.80
2018-08-30T00:55:15.139Z,9.85
2018-08-30T00:55:48.394Z,10.70
2018-08-30T00:56:21.425Z,10.38
2018-08-30T00:56:54.747Z,10.70
2018-08-30T00:57:27.677Z,9.78
2018-08-30T00:58:00.621Z,11.05
2018-08-30T00:58:33.557Z,10.90
2018-08-30T00:59:06.494Z,9.58
2018-08-30T00:59:39.563Z,10.78
2018-08-30T01:00:12.790Z,10.98
2018-08-30T01:00:45.717Z,10.20
2018-08-30T01:01:18.690Z,10.60
2018-08-30T01:01:51.622Z,9.93
2018-08-30T01:02:24.594Z,10.53
2018-08-30T01:02:57.736Z,10.72
2018-08-30T01:03:30.943Z,10.03
2018-08-30T01:04:04.080Z,10.43
2018-08-30T01:04:37.529Z,11.12
2018-08-30T01:05:10.468Z,11.10
2018-08-30T01:05:43.660Z,11.60
2018-08-30T01:06:16.572Z,9.95
2018-08-30T01:06:49.486Z,9.60
2018-08-30T01:07:22.565Z,10.53
2018-08-30T01:07:55.497Z,9.30
2018-08-30T01:08:28.577Z,9.90
2018-08-30T01:09:01.758Z,10.53
2018-08-30T01:09:34.974Z,9.90
2018-08-30T01:10:07.900Z,10.70
2018-08-30T01:10:40.848Z,10.03
2018-08-30T01:11:13.907Z,10.72
2018-08-30T01:11:47.032Z,11.65
2018-08-30T01:12:19.975Z,11.22
2018-08-30T01:12:53.124Z,9.25
2018-08-30T01:13:26.018Z,10.93
2018-08-30T01:13:59.205Z,11.22
2018-08-30T01:14:32.465Z,10.95
2018-08-30T01:15:05.553Z,12.07
2018-08-30T01:15:38.491Z,11.35
2018-08-30T01:16:11.627Z,10.00
2018-08-30T01:16:44.781Z,10.60
2018-08-30T01:17:17.990Z,10.08
2018-08-30T01:17:50.929Z,10.93
2018-08-30T01:18:23.895Z,11.05
2018-08-30T01:18:56.807Z,9.75
2018-08-30T01:19:29.746Z,11.20
2018-08-30T01:20:02.847Z,9.60
2018-08-30T01:20:35.800Z,10.30
2018-08-30T01:21:08.798Z,10.45
2018-08-30T01:21:41.796Z,9.65
2018-08-30T01:22:14.728Z,9.65
2018-08-30T01:22:47.915Z,10.88
2018-08-30T01:23:20.831Z,10.80
2018-08-30T01:23:53.889Z,10.45
2018-08-30T01:24:26.930Z,10.90
2018-08-30T01:24:59.986Z,10.20
2018-08-30T01:25:32.909Z,10.28
2018-08-30T01:26:05.986Z,10.35
2018-08-30T01:26:39.220Z,9.70
2018-08-30T01:27:12.398Z,10.70
2018-08-30T01:27:45.322Z,10.55
2018-08-30T01:28:18.265Z,10.10
2018-08-30T01:28:51.300Z,10.05
2018-08-30T01:29:24.491Z,10.38
2018-08-30T01:29:57.390Z,10.25
2018-08-30T01:30:30.553Z,9.78
2018-08-30T01:31:03.489Z,10.68
2018-08-30T01:31:36.472Z,11.12
2018-08-30T01:32:09.469Z,11.25
2018-08-30T01:32:42.380Z,10.32
2018-08-30T01:33:15.309Z,10.50
2018-08-30T01:33:48.237Z,9.93
2018-08-30T01:34:21.208Z,9.60
2018-08-30T01:34:54.125Z,10.50
2018-08-30T01:35:27.312Z,10.63
2018-08-30T01:36:00.458Z,11.20
2018-08-30T01:36:33.730Z,10.48
2018-08-30T01:37:06.657Z,11.03
2018-08-30T01:37:39.729Z,10.93
2018-08-30T01:38:12.856Z,10.43
2018-08-30T01:38:45.777Z,10.35
2018-08-30T01:39:18.890Z,11.38
2018-08-30T01:39:51.802Z,9.85
2018-08-30T01:40:24.696Z,10.60
2018-08-30T01:40:57.612Z,11.03
2018-08-30T01:41:30.556Z,11.08
2018-08-30T01:42:03.554Z,10.38
2018-08-30T01:42:36.741Z,10.32
2018-08-30T01:43:09.642Z,10.10
2018-08-30T01:43:42.616Z,11.08
2018-08-30T01:44:15.713Z,9.93
2018-08-30T01:44:48.640Z,10.55
2018-08-30T01:45:21.716Z,10.82
2018-08-30T01:45:54.630Z,11.12
2018-08-30T01:46:27.810Z,9.90
2018-08-30T01:47:01.256Z,11.00
2018-08-30T01:47:34.230Z,10.48
2018-08-30T01:48:07.146Z,10.88
2018-08-30T01:48:40.092Z,10.10
2018-08-30T01:49:13.085Z,9.83
2018-08-30T01:49:46.306Z,9.55
2018-08-30T01:50:19.440Z,10.78
2018-08-30T01:50:52.564Z,10.65
2018-08-30T01:51:25.725Z,10.40
2018-08-30T01:51:58.656Z,10.98
2018-08-30T01:52:31.854Z,10.95
2018-08-30T01:53:05.023Z,10.13
2018-08-30T01:53:38.078Z,10.65
2018-08-30T01:54:11.016Z,11.57
2018-08-30T01:54:43.928Z,11.48
2018-08-30T01:55:16.830Z,9.78
2018-08-30T01:55:49.791Z,9.93
2018-08-30T01:56:23.112Z,11.50
2018-08-30T01:56:56.146Z,10.15
2018-08-30T01:57:29.241Z,11.65
2018-08-30T01:58:02.502Z,9.35
2018-08-30T01:58:35.429Z,9.88
2018-08-30T01:59:08.341Z,10.53
2018-08-30T01:59:41.265Z,9.70
2018-08-30T02:00:14.185Z,9.58
2018-08-30T02:00:47.137Z,10.70
2018-08-30T02:01:20.231Z,10.68
2018-08-30T02:01:53.408Z,11.50
2018-08-30T02:02:26.450Z,10.68
2018-08-30T02:02:59.356Z,10.25
2018-08-30T02:03:32.357Z,9.93
2018-08-30T02:04:05.281Z,10.53
2018-08-30T02:04:38.173Z,9.35
2018-08-30T02:05:11.278Z,10.55
2018-08-30T02:05:44.204Z,10.50
2018-08-30T02:06:17.133Z,10.63
2018-08-30T02:06:50.050Z,10.75
2018-08-30T02:07:23.019Z,10.60
2018-08-30T02:07:56.180Z,9.65
2018-08-30T02:08:29.189Z,10.20
2018-08-30T02:09:02.317Z,10.10
2018-08-30T02:09:35.408Z,10.63
2018-08-30T02:10:08.340Z,11.60
2018-08-30T02:10:41.266Z,10.13
2018-08-30T02:11:14.350Z,10.30
2018-08-30T02:11:47.561Z,9.78
2018-08-30T02:12:20.724Z,10.15
2018-08-30T02:12:53.635Z,10.60
2018-08-30T02:13:26.780Z,10.30
2018-08-30T02:13:59.972Z,9.75
2018-08-30T02:14:32.941Z,9.75
2018-08-30T02:15:06.098Z,10.25
2018-08-30T02:15:39.013Z,10.08
2018-08-30T02:16:13.010Z,10.48
2018-08-30T02:16:47.045Z,10.00
2018-08-30T02:17:19.962Z,10.35
2018-08-30T02:17:53.095Z,10.13
2018-08-30T02:18:26.018Z,10.50
2018-08-30T02:18:59.139Z,10.45
2018-08-30T02:19:32.061Z,10.53
2018-08-30T02:20:05.416Z,10.28
2018-08-30T02:20:38.369Z,10.70
2018-08-30T02:21:11.300Z,9.80
2018-08-30T02:21:44.421Z,9.88
2018-08-30T02:22:17.325Z,9.95
2018-08-30T02:22:50.256Z,10.50
2018-08-30T02:23:23.164Z,11.70
2018-08-30T02:23:56.092Z,9.50
2018-08-30T02:24:29.077Z,11.18
2018-08-30T02:25:02.042Z,11.97
2018-08-30T02:25:34.985Z,10.20
2018-08-30T02:26:07.994Z,10.18
2018-08-30T02:26:40.905Z,9.83
2018-08-30T02:27:13.857Z,9.83
2018-08-30T02:27:46.964Z,10.30
2018-08-30T02:28:20.099Z,10.53
2018-08-30T02:28:53.320Z,11.35
2018-08-30T02:29:26.221Z,9.88
2018-08-30T02:29:59.120Z,9.60
2018-08-30T02:30:32.027Z,10.53
2018-08-30T02:31:04.977Z,9.18
2018-08-30T02:31:38.010Z,10.45
2018-08-30T02:32:11.159Z,10.63
2018-08-30T02:32:44.079Z,9.93
2018-08-30T02:33:16.996Z,10.75
2018-08-30T02:33:50.195Z,10.30
2018-08-30T02:34:23.126Z,10.10
2018-08-30T02:34:56.093Z,10.53
2018-08-30T02:35:29.028Z,11.28
2018-08-30T02:36:02.604Z,10.98
2018-08-30T02:36:36.088Z,11.30
2018-08-30T02:37:09.001Z,10.15
2018-08-30T02:37:41.938Z,9.93
2018-08-30T02:38:15.045Z,10.85
2018-08-30T02:38:48.089Z,9.95
2018-08-30T02:39:20.995Z,9.65
2018-08-30T02:39:54.085Z,10.05
2018-08-30T02:40:26.999Z,10.98
2018-08-30T02:41:00.134Z,10.18
2018-08-30T02:41:33.045Z,10.38
2018-08-30T02:42:06.187Z,9.98
2018-08-30T02:42:39.460Z,11.12
2018-08-30T02:43:12.381Z,11.38
2018-08-30T02:43:45.452Z,10.63
2018-08-30T02:44:18.627Z,10.18
2018-08-30T02:44:51.524Z,11.20
2018-08-30T02:45:24.659Z,9.98
2018-08-30T02:45:57.868Z,10.88
2018-08-30T02:46:31.012Z,11.25
2018-08-30T02:47:04.489Z,10.35
2018-08-30T02:47:37.729Z,10.50
2018-08-30T02:48:10.922Z,11.03
2018-08-30T02:48:44.220Z,10.75
2018-08-30T02:49:17.238Z,10.95
2018-08-30T02:49:50.146Z,11.12
2018-08-30T02:50:23.295Z,9.80
2018-08-30T02:50:56.426Z,10.98
2018-08-30T02:51:29.351Z,10.70
2018-08-30T02:52:02.278Z,12.40
2018-08-30T02:52:35.340Z,11.03
2018-08-30T02:53:08.535Z,10.23
2018-08-30T02:53:41.455Z,9.30
2018-08-30T02:54:14.354Z,10.43
2018-08-30T02:54:47.505Z,10.20
2018-08-30T02:55:20.621Z,10.82
2018-08-30T02:55:53.550Z,10.88
2018-08-30T02:56:26.664Z,10.93
2018-08-30T02:56:59.629Z,11.43
2018-08-30T02:57:32.603Z,10.60
2018-08-30T02:58:05.539Z,10.75
2018-08-30T02:58:38.488Z,10.55
2018-08-30T02:59:11.696Z,11.88
2018-08-30T02:59:44.816Z,11.53
2018-08-30T03:00:17.741Z,9.95
2018-08-30T03:00:50.653Z,10.95
2018-08-30T03:01:23.794Z,10.95
2018-08-30T03:01:56.972Z,10.30
2018-08-30T03:02:29.986Z,10.43
2018-08-30T03:03:03.011Z,11.20
2018-08-30T03:03:35.923Z,10.72
2018-08-30T03:04:08.877Z,10.35
2018-08-30T03:04:41.945Z,11.30
2018-08-30T03:05:15.121Z,10.35
2018-08-30T03:05:48.021Z,9.93
2018-08-30T03:06:21.167Z,9.95
2018-08-30T03:06:54.066Z,9.23
2018-08-30T03:07:27.017Z,11.05
2018-08-30T03:07:59.935Z,9.73
2018-08-30T03:08:33.186Z,10.00
2018-08-30T03:09:06.979Z,10.82
2018-08-30T03:09:39.954Z,11.28
2018-08-30T03:10:13.011Z,10.55
2018-08-30T03:10:45.971Z,11.45
2018-08-30T03:11:19.125Z,11.45
2018-08-30T03:11:52.446Z,10.88
2018-08-30T03:12:25.505Z,10.48
2018-08-30T03:12:58.409Z,10.48
2018-08-30T03:13:31.558Z,10.80
2018-08-30T03:14:04.482Z,10.58
2018-08-30T03:14:37.594Z,10.72
2018-08-30T03:15:11.964Z,10.93
2018-08-30T03:15:45.002Z,11.68
2018-08-30T03:16:18.099Z,10.55
2018-08-30T03:16:51.225Z,10.82
2018-08-30T03:17:24.236Z,11.00
2018-08-30T03:17:57.335Z,12.35
2018-08-30T03:18:30.256Z,12.45
2018-08-30T03:19:03.432Z,12.28
2018-08-30T03:19:36.503Z,11.90
2018-08-30T03:20:10.237Z,11.73
2018-08-30T03:20:43.213Z,11.10
2018-08-30T03:21:16.124Z,11.60
2018-08-30T03:21:49.015Z,10.70
2018-08-30T03:22:21.926Z,11.45
2018-08-30T03:22:54.939Z,10.85
2018-08-30T03:23:27.864Z,10.85
2018-08-30T03:24:00.823Z,10.63
2018-08-30T03:24:33.873Z,10.65
2018-08-30T03:25:06.810Z,10.70
2018-08-30T03:25:40.039Z,11.53
2018-08-30T03:26:13.249Z,9.80
2018-08-30T03:26:46.194Z,10.93
2018-08-30T03:27:19.195Z,10.20
2018-08-30T03:27:52.310Z,10.18
2018-08-30T03:28:25.221Z,11.10
2018-08-30T03:28:58.116Z,10.60
2018-08-30T03:29:31.053Z,11.05
2018-08-30T03:30:04.487Z,11.45
2018-08-30T03:30:37.583Z,10.85
2018-08-30T03:31:10.526Z,10.75
2018-08-30T03:31:43.666Z,11.80
2018-08-30T03:32:16.620Z,10.20
2018-08-30T03:32:49.748Z,11.40
2018-08-30T03:33:22.922Z,10.50
2018-08-30T03:33:56.098Z,11.48
2018-08-30T03:34:29.236Z,10.50
2018-08-30T03:35:02.225Z,10.70
2018-08-30T03:35:35.278Z,10.95
2018-08-30T03:36:08.195Z,10.38
2018-08-30T03:36:41.143Z,10.23
2018-08-30T03:37:14.243Z,10.30
2018-08-30T03:37:47.384Z,11.57
2018-08-30T03:38:20.610Z,10.95
2018-08-30T03:38:53.775Z,10.48
2018-08-30T03:39:26.760Z,11.70
2018-08-30T03:39:59.798Z,11.45
2018-08-30T03:40:33.019Z,10.75
2018-08-30T03:41:05.950Z,10.93
2018-08-30T03:41:39.033Z,10.58
2018-08-30T03:42:12.230Z,11.25
2018-08-30T03:42:45.172Z,10.20
2018-08-30T03:43:18.088Z,10.85
2018-08-30T03:43:51.022Z,11.65
2018-08-30T03:44:24.144Z,10.68
2018-08-30T03:44:57.228Z,10.90
2018-08-30T03:45:30.375Z,10.40
2018-08-30T03:46:03.315Z,10.40
2018-08-30T03:46:36.421Z,10.98
2018-08-30T03:47:09.745Z,10.65
2018-08-30T03:47:42.782Z,11.50
2018-08-30T03:48:15.755Z,10.95
2018-08-30T03:48:48.804Z,10.05
2018-08-30T03:49:22.012Z,11.88
2018-08-30T03:49:55.164Z,10.98
2018-08-30T03:50:28.076Z,11.15
2018-08-30T03:51:01.237Z,10.55
2018-08-30T03:51:34.581Z,10.85
2018-08-30T03:52:07.958Z,9.95
2018-08-30T03:52:41.092Z,10.70
2018-08-30T03:53:14.264Z,10.18
2018-08-30T03:53:47.470Z,10.18
2018-08-30T03:54:20.368Z,10.48
2018-08-30T03:54:53.325Z,11.45
2018-08-30T03:55:26.316Z,9.63
2018-08-30T03:55:59.218Z,10.80
2018-08-30T03:56:32.393Z,10.32
2018-08-30T03:57:05.399Z,11.00
2018-08-30T03:57:38.429Z,10.95
2018-08-30T03:58:11.401Z,10.63
2018-08-30T03:58:44.513Z,11.38
2018-08-30T03:59:17.730Z,10.75
2018-08-30T03:59:50.869Z,11.30
2018-08-30T04:00:24.046Z,11.88
2018-08-30T04:00:57.181Z,11.73
2018-08-30T04:01:30.370Z,10.48
2018-08-30T04:02:03.957Z,11.50
2018-08-30T04:02:36.865Z,11.75
2018-08-30T04:03:10.537Z,10.65
2018-08-30T04:03:43.685Z,11.53
2018-08-30T04:04:16.672Z,10.18
2018-08-30T04:04:49.755Z,10.70
2018-08-30T04:05:22.677Z,10.35
2018-08-30T04:05:55.605Z,10.23
2018-08-30T04:06:28.557Z,11.18
2018-08-30T04:07:01.469Z,10.65
2018-08-30T04:07:34.389Z,11.68
2018-08-30T04:08:07.318Z,10.50
2018-08-30T04:08:40.531Z,11.05
2018-08-30T04:09:13.685Z,10.20
2018-08-30T04:09:46.901Z,11.05
2018-08-30T04:10:20.029Z,10.38
2018-08-30T04:10:52.974Z,11.15
2018-08-30T04:11:26.076Z,10.40
2018-08-30T04:11:59.244Z,11.00
2018-08-30T04:12:32.246Z,11.00
2018-08-30T04:13:05.146Z,9.80
2018-08-30T04:13:38.220Z,10.55
2018-08-30T04:14:10.995Z,11.43
2018-08-30T04:14:43.914Z,10.43
2018-08-30T04:15:16.861Z,10.75
2018-08-30T04:15:50.157Z,10.90
2018-08-30T04:16:23.188Z,11.38
2018-08-30T04:16:56.152Z,11.45
2018-08-30T04:17:29.222Z,11.60
2018-08-30T04:18:02.397Z,10.93
2018-08-30T04:18:35.582Z,11.45
2018-08-30T04:19:08.673Z,10.60
2018-08-30T04:19:41.629Z,11.97
2018-08-30T04:20:14.547Z,12.98
2018-08-30T04:20:47.517Z,11.60
2018-08-30T04:21:20.598Z,10.78
2018-08-30T04:21:53.600Z,11.05
2018-08-30T04:22:26.598Z,9.73
2018-08-30T04:22:59.740Z,10.32
2018-08-30T04:23:32.686Z,10.25
2018-08-30T04:24:07.155Z,11.43
2018-08-30T04:24:40.234Z,12.18
2018-08-30T04:25:13.424Z,11.00
2018-08-30T04:25:46.528Z,11.78
2018-08-30T04:26:19.494Z,12.35
2018-08-30T04:26:52.479Z,10.68
2018-08-30T04:27:25.424Z,11.35
2018-08-30T04:27:58.374Z,11.25
2018-08-30T04:28:31.565Z,13.10
2018-08-30T04:29:04.726Z,12.30
2018-08-30T04:29:37.644Z,10.90
2018-08-30T04:30:10.793Z,10.72
2018-08-30T04:30:43.733Z,11.45
2018-08-30T04:31:16.669Z,11.30
2018-08-30T04:31:49.700Z,12.55
2018-08-30T04:32:22.613Z,11.40
2018-08-30T04:32:55.745Z,11.48
2018-08-30T04:33:28.660Z,11.00
2018-08-30T04:34:01.836Z,12.15
2018-08-30T04:34:34.784Z,12.58
2018-08-30T04:35:07.792Z,13.40
2018-08-30T04:35:40.750Z,10.82
2018-08-30T04:36:13.672Z,11.50
2018-08-30T04:36:46.610Z,11.25
2018-08-30T04:37:19.749Z,10.85
2018-08-30T04:37:52.721Z,12.60
2018-08-30T04:38:25.682Z,13.68
2018-08-30T04:38:58.876Z,11.70
2018-08-30T04:39:31.918Z,11.55
2018-08-30T04:40:04.864Z,12.00
2018-08-30T04:40:37.805Z,11.55
2018-08-30T04:41:10.970Z,11.73
2018-08-30T04:41:44.103Z,12.20
2018-08-30T04:42:17.616Z,12.03
2018-08-30T04:42:50.959Z,12.55
2018-08-30T04:43:23.920Z,13.93
2018-08-30T04:43:57.149Z,12.00
2018-08-30T04:44:30.105Z,12.30
2018-08-30T04:45:03.180Z,12.63
2018-08-30T04:45:36.201Z,11.15
2018-08-30T04:46:09.366Z,11.97
2018-08-30T04:46:42.696Z,11.28
2018-08-30T04:47:15.635Z,12.35
2018-08-30T04:47:48.628Z,11.75
2018-08-30T04:48:21.565Z,12.70
2018-08-30T04:48:54.500Z,12.28
2018-08-30T04:49:27.413Z,11.50
2018-08-30T04:50:00.605Z,12.15
2018-08-30T04:50:33.840Z,11.88
2018-08-30T04:51:07.115Z,11.63
2018-08-30T04:51:40.031Z,14.05
2018-08-30T04:52:13.565Z,12.47
2018-08-30T04:52:46.480Z,12.78
2018-08-30T04:53:19.620Z,12.20
2018-08-30T04:53:52.541Z,11.95
2018-08-30T04:54:25.834Z,12.25
2018-08-30T04:54:58.883Z,12.65
2018-08-30T04:55:32.066Z,12.05
2018-08-30T04:56:05.013Z,11.55
2018-08-30T04:56:37.932Z,12.60
2018-08-30T04:57:11.019Z,11.97
2018-08-30T04:57:44.297Z,13.08
2018-08-30T04:58:17.242Z,13.10
2018-08-30T04:58:50.238Z,13.40
2018-08-30T04:59:23.406Z,13.65
2018-08-30T04:59:56.413Z,13.62
2018-08-30T05:00:29.421Z,13.05
2018-08-30T05:01:02.438Z,13.25
2018-08-30T05:01:35.481Z,13.00
2018-08-30T05:02:08.387Z,13.40
2018-08-30T05:02:41.825Z,13.30
2018-08-30T05:03:15.028Z,14.60
2018-08-30T05:03:48.328Z,12.53
2018-08-30T05:04:21.378Z,14.75
2018-08-30T05:04:54.550Z,13.48
2018-08-30T05:05:27.782Z,12.88
2018-08-30T05:06:00.888Z,12.65
2018-08-30T05:06:33.830Z,13.90
2018-08-30T05:07:06.782Z,13.53
2018-08-30T05:07:39.729Z,14.53
2018-08-30T05:08:12.682Z,13.30
2018-08-30T05:08:46.523Z,13.80
2018-08-30T05:09:19.805Z,13.13
2018-08-30T05:09:52.917Z,15.15
2018-08-30T05:10:26.161Z,13.88
2018-08-30T05:10:59.248Z,13.48
2018-08-30T05:11:32.452Z,14.60
2018-08-30T05:12:05.542Z,14.85
2018-08-30T05:12:38.479Z,14.25
2018-08-30T05:13:11.618Z,14.45
2018-08-30T05:13:44.560Z,14.38
2018-08-30T05:14:17.706Z,14.05
2018-08-30T05:14:50.876Z,14.47
2018-08-30T05:15:23.809Z,14.70
2018-08-30T05:15:56.918Z,14.35
2018-08-30T05:16:30.119Z,14.78
2018-08-30T05:17:03.569Z,14.23
2018-08-30T05:17:36.748Z,15.05
2018-08-30T05:18:10.040Z,14.53
2018-08-30T05:18:43.087Z,15.72
2018-08-30T05:19:16.279Z,13.53
2018-08-30T05:19:49.426Z,14.53
2018-08-30T05:20:22.339Z,14.38
2018-08-30T05:20:55.715Z,13.70
2018-08-30T05:21:29.021Z,13.65
2018-08-30T05:22:02.314Z,15.00
2018-08-30T05:22:35.319Z,14.20
2018-08-30T05:23:08.376Z,14.20
2018-08-30T05:23:41.521Z,15.32
2018-08-30T05:24:14.546Z,17.15
2018-08-30T05:24:47.804Z,15.50
2018-08-30T05:25:20.904Z,15.43
2018-08-30T05:25:54.027Z,14.05
2018-08-30T05:26:27.502Z,15.58
2018-08-30T05:27:00.466Z,15.20
2018-08-30T05:27:33.629Z,15.78
2018-08-30T05:28:07.069Z,15.70
2018-08-30T05:28:39.996Z,15.28
2018-08-30T05:29:13.303Z,16.07
2018-08-30T05:29:46.431Z,14.85
2018-08-30T05:30:20.277Z,15.20
2018-08-30T05:30:53.812Z,14.70
2018-08-30T05:31:26.938Z,14.47
2018-08-30T05:32:00.413Z,15.93
2018-08-30T05:32:33.602Z,16.27
2018-08-30T05:33:07.261Z,14.23
2018-08-30T05:33:40.681Z,14.07
2018-08-30T05:34:13.947Z,15.90
2018-08-30T05:34:46.958Z,15.08
2018-08-30T05:35:20.257Z,13.60
2018-08-30T05:35:53.488Z,14.25
2018-08-30T05:36:26.627Z,15.70
2018-08-30T05:36:59.815Z,15.85
2018-08-30T05:37:32.789Z,15.00
2018-08-30T05:38:05.841Z,15.20
2018-08-30T05:38:38.829Z,14.53
2018-08-30T05:39:11.961Z,16.00
2018-08-30T05:39:45.092Z,15.50
2018-08-30T05:40:18.509Z,15.50
2018-08-30T05:40:51.704Z,16.10
2018-08-30T05:41:24.768Z,16.85
2018-08-30T05:41:57.745Z,14.93
2018-08-30T05:42:30.734Z,15.10
2018-08-30T05:43:03.665Z,15.68
2018-08-30T05:43:36.781Z,15.23
2018-08-30T05:44:10.318Z,17.67
2018-08-30T05:44:43.403Z,15.53
2018-08-30T05:45:16.902Z,14.83
2018-08-30T05:45:49.930Z,15.98
2018-08-30T05:46:22.926Z,15.00
2018-08-30T05:46:55.952Z,15.78
2018-08-30T05:47:29.008Z,15.65
2018-08-30T05:48:02.292Z,17.27
2018-08-30T05:48:35.306Z,16.27
2018-08-30T05:49:08.250Z,16.82
2018-08-30T05:49:41.502Z,15.80
2018-08-30T05:50:15.047Z,15.30
2018-08-30T05:50:47.974Z,14.63
2018-08-30T05:51:20.969Z,15.13
2018-08-30T05:51:54.089Z,14.83
2018-08-30T05:52:27.136Z,15.30
2018-08-30T05:53:00.321Z,14.83
2018-08-30T05:53:33.460Z,15.40
2018-08-30T05:54:06.565Z,15.38
2018-08-30T05:54:39.869Z,15.83
2018-08-30T05:55:12.874Z,14.60
2018-08-30T05:55:46.154Z,13.98
2018-08-30T05:56:19.251Z,15.23
2018-08-30T05:56:52.472Z,15.60
2018-08-30T05:57:25.349Z,14.38
2018-08-30T05:57:58.477Z,16.35
2018-08-30T05:58:31.907Z,13.05
2018-08-30T05:59:04.920Z,15.38
2018-08-30T05:59:38.032Z,16.75
2018-08-30T06:00:11.161Z,14.70
2018-08-30T06:00:44.340Z,15.95
2018-08-30T06:01:17.285Z,15.85
2018-08-30T06:01:50.302Z,15.18
2018-08-30T06:02:23.203Z,15.55
2018-08-30T06:02:56.105Z,15.40
2018-08-30T06:03:29.138Z,14.75
2018-08-30T06:04:02.137Z,15.28
2018-08-30T06:04:35.190Z,15.35
2018-08-30T06:05:08.176Z,13.80
2018-08-30T06:05:41.176Z,16.50
2018-08-30T06:06:14.268Z,14.90
2018-08-30T06:06:47.441Z,15.90
2018-08-30T06:07:20.694Z,15.00
2018-08-30T06:07:53.782Z,14.73
2018-08-30T06:08:26.787Z,16.90
2018-08-30T06:09:00.372Z,13.90
2018-08-30T06:09:33.488Z,15.83
2018-08-30T06:10:06.504Z,15.28
2018-08-30T06:10:39.757Z,15.55
2018-08-30T06:11:12.712Z,15.88
2018-08-30T06:11:45.793Z,15.50
2018-08-30T06:12:18.737Z,15.10
2018-08-30T06:12:51.949Z,14.98
2018-08-30T06:13:24.878Z,14.38
2018-08-30T06:13:58.018Z,14.68
2018-08-30T06:14:31.073Z,15.98
2018-08-30T06:15:04.032Z,14.70
2018-08-30T06:15:37.193Z,14.83
2018-08-30T06:16:10.158Z,15.48
2018-08-30T06:16:43.143Z,14.85
2018-08-30T06:17:16.073Z,15.70
2018-08-30T06:17:49.212Z,14.85
2018-08-30T06:18:22.730Z,15.03
2018-08-30T06:18:55.907Z,15.75
2018-08-30T06:19:28.869Z,15.43
2018-08-30T06:20:01.917Z,14.60
2018-08-30T06:20:34.808Z,14.83
2018-08-30T06:21:08.621Z,16.45
2018-08-30T06:21:41.794Z,15.60
2018-08-30T06:22:14.977Z,15.65
2018-08-30T06:22:48.078Z,16.02
2018-08-30T06:23:21.248Z,14.70
2018-08-30T06:23:54.207Z,15.80
2018-08-30T06:24:27.360Z,16.40
2018-08-30T06:25:00.602Z,15.10
2018-08-30T06:25:33.675Z,14.60
2018-08-30T06:26:06.893Z,14.47
2018-08-30T06:26:40.122Z,15.43
2018-08-30T06:27:13.211Z,16.07
2018-08-30T06:27:46.227Z,16.00
2018-08-30T06:28:19.292Z,15.55
2018-08-30T06:28:52.257Z,15.83
2018-08-30T06:29:25.371Z,17.15
2018-08-30T06:29:58.615Z,15.28
2018-08-30T06:30:31.666Z,15.40
2018-08-30T06:31:04.615Z,15.20
2018-08-30T06:31:37.869Z,15.35
2018-08-30T06:32:10.994Z,16.05
2018-08-30T06:32:44.126Z,20.62
2018-08-30T06:33:17.314Z,20.15
2018-08-30T06:33:50.228Z,16.52
2018-08-30T06:34:23.316Z,16.67
2018-08-30T06:34:56.266Z,16.17
2018-08-30T06:35:29.339Z,16.05
2018-08-30T06:36:02.296Z,16.70
2018-08-30T06:36:35.269Z,16.95
2018-08-30T06:37:08.577Z,18.15
2018-08-30T06:37:41.503Z,16.95
2018-08-30T06:38:14.687Z,16.77
2018-08-30T06:38:47.817Z,17.15
2018-08-30T06:39:20.754Z,17.35
2018-08-30T06:39:53.881Z,17.00
2018-08-30T06:40:26.792Z,17.32
2018-08-30T06:40:59.949Z,15.38
2018-08-30T06:41:32.946Z,17.55
2018-08-30T06:42:05.961Z,17.32
2018-08-30T06:42:38.929Z,16.57
2018-08-30T06:43:12.005Z,15.72
2018-08-30T06:43:45.427Z,17.55
2018-08-30T06:44:18.468Z,16.85
2018-08-30T06:44:51.583Z,17.40
2018-08-30T06:45:24.579Z,16.27
2018-08-30T06:45:57.930Z,17.62
2018-08-30T06:46:30.849Z,16.20
2018-08-30T06:47:03.782Z,17.35
2018-08-30T06:47:36.966Z,17.55
2018-08-30T06:48:10.058Z,15.75
2018-08-30T06:48:43.131Z,17.48
2018-08-30T06:49:15.988Z,18.75
2018-08-30T06:49:48.929Z,18.70
2018-08-30T06:50:22.089Z,18.67
2018-08-30T06:50:54.989Z,17.35
2018-08-30T06:51:27.893Z,18.10
2018-08-30T06:52:01.050Z,15.98
2018-08-30T06:52:34.231Z,16.35
2018-08-30T06:53:07.480Z,17.35
2018-08-30T06:53:40.545Z,17.40
2018-08-30T06:54:13.610Z,17.67
2018-08-30T06:54:46.754Z,17.90
2018-08-30T06:55:19.681Z,17.98
2018-08-30T06:55:52.782Z,17.60
2018-08-30T06:56:26.245Z,17.75
2018-08-30T06:56:59.698Z,17.95
2018-08-30T06:57:32.837Z,18.25
2018-08-30T06:58:05.997Z,17.35
2018-08-30T06:58:38.952Z,17.98
2018-08-30T06:59:12.060Z,17.75
2018-08-30T06:59:45.034Z,17.17
2018-08-30T07:00:18.177Z,18.20
2018-08-30T07:00:51.180Z,18.90
2018-08-30T07:01:24.153Z,18.62
2018-08-30T07:01:57.456Z,18.35
2018-08-30T07:02:30.511Z,18.50
2018-08-30T07:03:03.697Z,17.23
2018-08-30T07:03:36.639Z,16.60
2018-08-30T07:04:09.930Z,18.50
2018-08-30T07:04:43.808Z,18.90
2018-08-30T07:05:17.023Z,18.55
2018-08-30T07:05:49.927Z,17.10
2018-08-30T07:06:22.879Z,17.07
2018-08-30T07:06:56.061Z,17.15
2018-08-30T07:07:28.944Z,17.60